Tombarra — MPRD6 — position and weather

sailwx.info

Track history (hours):
 
Tides and Currents Weather Stations Pressure Air Temp Water Temp Dewpoint Dewpoint Depression Visibility Wind Speed Wind Dir Waves Ship Positions

Tombarra

Last reported at 2015-May-22 07:22 UTC. Time now 2015-May-27 03:52 UTC.
Position N 49°55' W 003°07'.

Length 199 m; draft 10.1 m.

Type: Ship. MMSI: 232971000.

Date/timePositionNaut miles runAvg speedWind from/ knotsBaromVisibWave heightAir tempDewpointWater temp
2015-May-22 07:22N 49°55' W 003°07'1817.7
2015-May-22 06:20N 50°01' W 002°40'1619.6
2015-May-22 05:32N 50°05' W 002°16'2121.1
2015-May-22 04:33N 50°11' W 001°45'2521.1
2015-May-22 03:21N 50°18' W 001°07'3619.0
2015-May-22 01:28N 50°28' W 000°14'1617.1
2015-May-22 00:32N 50°32' E 000°11'1616.0
2015-May-21 23:33N 50°35' E 000°35'1616.4
2015-May-21 22:33N 50°45' E 000°56'1818.3
2015-May-21 21:33N 50°56' E 001°19'2020.1
2015-May-21 20:34N 51°10' E 001°41'1918.5
2015-May-21 19:33N 51°24' E 001°60'1717.1
2015-May-21 18:33N 51°22' E 002°27'1414.4
2015-May-21 17:34N 51°22' E 002°50'1413.6
2015-May-21 16:33N 51°21' E 003°12'2 2.1
2015-May-21 15:33N 51°19' E 003°13'0 0.4
2015-May-21 14:33N 51°19' E 003°14'0 0.0
2015-May-21 13:33N 51°19' E 003°14'0 0.0
2015-May-21 12:33N 51°19' E 003°14'0 0.0
2015-May-21 11:33N 51°19' E 003°14'0 0.0
2015-May-21 10:33N 51°19' E 003°14'0 0.0
2015-May-21 09:33N 51°19' E 003°14'0 0.0
2015-May-21 08:33N 51°19' E 003°14'0 0.0
2015-May-21 07:33N 51°19' E 003°14'0 0.0
2015-May-21 06:33N 51°19' E 003°14'0 0.0
2015-May-21 05:33N 51°19' E 003°14'0 0.0
2015-May-21 04:33N 51°19' E 003°13'0 0.0
2015-May-21 03:33N 51°19' E 003°14'0 0.0
2015-May-21 02:33N 51°19' E 003°14'0 0.0
2015-May-21 01:33N 51°19' E 003°14'1 0.8
2015-May-21 00:33N 51°20' E 003°13'1 0.9
2015-May-20 23:33N 51°21' E 003°13'1110.5
2015-May-20 22:34N 51°22' E 002°56'9 9.4
2015-May-20 21:33N 51°26' E 002°42'9 9.2
2015-May-20 20:33N 51°35' E 002°42'1813.1
2015-May-20 19:09N 51°53' E 002°41'5012.4
2015-May-20 15:07N 52°35' E 003°27'610.6
2015-May-20 14:33N 52°39' E 003°33'1211.6
2015-May-20 13:33N 52°48' E 003°45'1212.2
2015-May-20 12:33N 52°57' E 003°59'1212.1
2015-May-20 11:33N 53°05' E 004°14'1211.7
2015-May-20 10:33N 53°13' E 004°27'1312.4
2015-May-20 09:31N 53°26' E 004°35'1111.5
2015-May-20 08:33N 53°32' E 004°50'1312.7
2015-May-20 07:33N 53°37' E 005°10'1313.3
2015-May-20 06:33N 53°40' E 005°31'1414.1
2015-May-20 05:33N 53°45' E 005°54'1515.4
2015-May-20 04:33N 53°49' E 006°19'3115.5
2015-May-20 02:33N 53°57' E 007°10'1514.7
2015-May-20 01:33N 53°59' E 007°35'1212.2
2015-May-20 00:33N 53°52' E 007°52'1514.8
2015-May-19 23:34N 53°45' E 008°13'1413.9
2015-May-19 22:33N 53°36' E 008°31'2 1.9
2015-May-19 21:33N 53°34' E 008°33'0 0.4
2015-May-19 20:31N 53°35' E 008°33'0 0.0
2015-May-19 19:31N 53°35' E 008°33'0 0.0
2015-May-19 18:31N 53°35' E 008°33'0 0.0
2015-May-19 17:31N 53°35' E 008°33'0 0.0
2015-May-19 16:31N 53°35' E 008°33'0 0.0
2015-May-19 15:31N 53°35' E 008°33'0 0.0
2015-May-19 14:31N 53°35' E 008°33'0 0.0
2015-May-19 13:31N 53°35' E 008°33'0 0.0
2015-May-19 12:31N 53°35' E 008°33'0 0.0
2015-May-19 11:31N 53°35' E 008°33'0 0.0
2015-May-19 10:31N 53°35' E 008°33'0 0.0
2015-May-19 09:31N 53°35' E 008°33'0 0.0
2015-May-19 08:31N 53°35' E 008°33'0 0.0
2015-May-19 07:31N 53°35' E 008°33'0 0.0
2015-May-19 06:31N 53°35' E 008°33'0 0.0
2015-May-19 05:31N 53°35' E 008°33'0 0.0
2015-May-19 04:31N 53°35' E 008°33'0 0.0
2015-May-19 03:31N 53°35' E 008°33'0 0.0
2015-May-19 02:31N 53°35' E 008°33'1 0.6
2015-May-19 01:33N 53°34' E 008°33'10 9.7
2015-May-19 00:34N 53°41' E 008°21'1616.3
2015-May-18 23:33N 53°51' E 007°60'1211.7
2015-May-18 22:34N 53°55' E 007°41'1110.7
2015-May-18 21:34N 54°04' E 007°32'1615.8
2015-May-18 20:33N 54°18' E 007°19'1919.4
2015-May-18 19:34N 54°35' E 007°04'1918.4
2015-May-18 18:32N 54°54' E 006°59'1818.0
2015-May-18 17:33N 55°11' E 006°57'1817.9
2015-May-18 16:33N 55°29' E 007°04'1817.7
2015-May-18 15:33N 55°46' E 007°14'15216.7
2015-May-18 06:30N 57°44' E 010°07'1617.0
2015-May-18 05:33N 57°48' E 010°36'1616.3
2015-May-18 04:34N 57°40' E 011°03'1717.4
2015-May-18 03:33N 57°28' E 011°26'1817.6
2015-May-18 02:33N 57°12' E 011°39'1717.4
2015-May-18 01:33N 56°55' E 011°49'1717.4
2015-May-18 00:33N 56°38' E 011°57'1817.5
2015-May-17 23:33N 56°21' E 012°04'1717.1
2015-May-17 22:34N 56°10' E 012°27'1313.2
2015-May-17 21:33N 55°59' E 012°42'1615.7
2015-May-17 20:33N 55°45' E 012°53'9 8.6
2015-May-17 19:33N 55°37' E 012°60'0 0.0
2015-May-17 18:32N 55°37' E 012°60'0 0.0
2015-May-17 17:29N 55°37' E 012°60'0 0.0
2015-May-17 16:32N 55°37' E 012°60'0 0.0
2015-May-17 15:32N 55°37' E 012°60'0 0.0
2015-May-17 14:32N 55°37' E 012°60'0 0.0
2015-May-17 13:32N 55°37' E 012°60'0 0.0
2015-May-17 12:29N 55°37' E 012°60'0 0.0
2015-May-17 11:32N 55°37' E 012°60'0 0.0
2015-May-17 10:32N 55°37' E 012°60'0 0.0
2015-May-17 09:26N 55°37' E 012°60'0 0.0
2015-May-17 08:29N 55°37' E 012°60'0 0.0
2015-May-17 07:32N 55°37' E 012°60'0 0.0
2015-May-17 06:32N 55°37' E 012°60'0 0.0
2015-May-17 05:32N 55°37' E 012°60'0 0.0
2015-May-17 04:29N 55°37' E 012°60'0 0.1
2015-May-17 03:34N 55°37' E 012°60'7 7.5
2015-May-17 02:33N 55°44' E 012°53'1414.3
2015-May-17 01:34N 55°57' E 012°42'1312.9
2015-May-17 00:34N 56°07' E 012°29'1414.3
2015-May-16 23:34N 56°16' E 012°08'1817.7
2015-May-16 22:33N 56°33' E 011°57'1817.5
2015-May-16 21:33N 56°49' E 011°49'1111.5
2015-May-16 20:33N 57°00' E 011°42'1211.7
2015-May-16 19:33N 57°11' E 011°35'1413.8
2015-May-16 18:33N 57°24' E 011°26'1313.4
2015-May-16 17:33N 57°34' E 011°10'1211.9
2015-May-16 16:33N 57°43' E 010°54'1211.6
2015-May-16 15:33N 57°47' E 010°34'21313.1
2015-May-15 23:14N 55°18' E 005°58'5615.2
2015-May-15 19:32N 54°31' E 005°04'1313.4
2015-May-15 18:32N 54°20' E 004°51'1211.6
2015-May-15 17:33N 54°09' E 004°43'1313.2
2015-May-15 16:33N 53°57' E 004°36'1211.9
2015-May-15 15:31N 53°47' E 004°23'1211.8
2015-May-15 14:33N 53°40' E 004°08'1211.8
2015-May-15 13:32N 53°33' E 003°52'1111.6
2015-May-15 12:34N 53°23' E 003°41'1212.0
2015-May-15 11:33N 53°13' E 003°33'1211.8
2015-May-15 10:32N 53°02' E 003°25'1111.2
2015-May-15 09:33N 52°52' E 003°17'1110.7
2015-May-15 08:31N 52°42' E 003°08'1010.3
2015-May-15 07:31N 52°33' E 003°01'11 9.9
2015-May-15 06:26N 52°23' E 002°54'4442.1
2015-May-15 05:23N 51°39' E 002°44'2120.9
2015-May-15 04:24N 51°60' E 002°43'3029.4
2015-May-15 03:22N 51°30' E 002°41'4 4.2
2015-May-15 02:30N 51°33' E 002°42'1212.2
2015-May-15 01:34N 51°22' E 002°47'1514.9
2015-May-15 00:34N 51°22' E 003°11'3 2.7
2015-May-14 23:33N 51°20' E 003°13'2 1.8
2015-May-14 22:32N 51°18' E 003°14'0 0.0
2015-May-14 21:32N 51°18' E 003°14'0 0.0
2015-May-14 20:32N 51°18' E 003°14'0 0.0
2015-May-14 19:32N 51°18' E 003°14'0 0.0
2015-May-14 18:32N 51°18' E 003°14'0 0.0
2015-May-14 17:32N 51°18' E 003°14'0 0.0
2015-May-14 16:32N 51°18' E 003°14'0 0.0
2015-May-14 15:32N 51°18' E 003°14'0 0.0
2015-May-14 14:32N 51°18' E 003°14'0 0.0
2015-May-14 13:32N 51°18' E 003°14'0 0.0
2015-May-14 12:29N 51°18' E 003°14'0 0.0
2015-May-14 11:32N 51°18' E 003°14'0 0.0
2015-May-14 10:32N 51°18' E 003°14'0 0.5
2015-May-14 09:33N 51°18' E 003°14'2 1.6
2015-May-14 08:33N 51°20' E 003°13'8 7.9
2015-May-14 07:33N 51°24' E 003°02'1413.6
2015-May-14 06:33N 51°22' E 002°41'1212.5
2015-May-14 05:33N 51°19' E 002°21'1716.8
2015-May-14 04:33N 51°11' E 001°58'1616.1
2015-May-14 03:33N 51°01' E 001°38'1616.1
2015-May-14 02:33N 50°47' E 001°24'1616.3
2015-May-14 01:33N 50°34' E 001°08'1716.8
2015-May-14 00:33N 50°28' E 000°44'1717.0
2015-May-13 23:33N 50°22' E 000°19'3316.6
2015-May-13 21:33N 50°14' W 000°32'1616.5
2015-May-13 20:33N 50°10' W 000°57'1717.0
2015-May-13 19:33N 50°06' W 001°22'1818.1
2015-May-13 18:33N 50°00' W 001°49'1919.1
2015-May-13 17:33N 49°55' W 002°18'1919.5
2015-May-13 16:33N 49°50' W 002°47'4019.0
2015-May-13 14:27N 49°45' W 003°48'9413.7
2015-May-13 07:33N 50°26' W 006°01'1817.6
2015-May-13 06:33N 50°36' W 005°39'1918.8
2015-May-13 05:33N 50°48' W 005°15'8717.5
2015-May-13 00:33N 51°22' W 003°07'1414.3
2015-May-12 23:33N 51°30' W 002°48'3 2.9
2015-May-12 22:34N 51°30' W 002°43'0 0.2
2015-May-12 21:33N 51°30' W 002°43'0 0.0
2015-May-12 20:33N 51°30' W 002°43'0 0.0
2015-May-12 19:33N 51°30' W 002°43'0 0.0
2015-May-12 18:33N 51°30' W 002°43'0 0.0
2015-May-12 17:33N 51°30' W 002°43'0 0.0
2015-May-12 16:33N 51°30' W 002°43'0 0.0
2015-May-12 15:33N 51°30' W 002°43'0 0.0
2015-May-12 14:33N 51°30' W 002°43'0 0.0
2015-May-12 13:33N 51°30' W 002°43'0 0.3
2015-May-12 12:34N 51°30' W 002°43'1 0.7
2015-May-12 11:33N 51°31' W 002°43'1010.0
2015-May-12 10:33N 51°27' W 002°59'  
Track history (hours):
 
Tides and Currents Weather Stations Pressure Air Temp Water Temp Dewpoint Dewpoint Depression Visibility Wind Speed Wind Dir Waves Ship Positions

Tombarra

Last reported at 2015-May-22 07:22 UTC. Time now 2015-May-27 03:52 UTC.
Position N 49°55' W 003°07'.

Length 199 m; draft 10.1 m.

Type: Ship. MMSI: 232971000.

Date/timePositionNaut miles runAvg speedWind from/ knotsBaromVisibWave heightAir tempDewpointWater temp
2015-May-22 07:22N 49°55' W 003°07'1817.7
2015-May-22 06:20N 50°01' W 002°40'1619.6
2015-May-22 05:32N 50°05' W 002°16'2121.1
2015-May-22 04:33N 50°11' W 001°45'2521.1
2015-May-22 03:21N 50°18' W 001°07'3619.0
2015-May-22 01:28N 50°28' W 000°14'1617.1
2015-May-22 00:32N 50°32' E 000°11'1616.0
2015-May-21 23:33N 50°35' E 000°35'1616.4
2015-May-21 22:33N 50°45' E 000°56'1818.3
2015-May-21 21:33N 50°56' E 001°19'2020.1
2015-May-21 20:34N 51°10' E 001°41'1918.5
2015-May-21 19:33N 51°24' E 001°60'1717.1
2015-May-21 18:33N 51°22' E 002°27'1414.4
2015-May-21 17:34N 51°22' E 002°50'1413.6
2015-May-21 16:33N 51°21' E 003°12'2 2.1
2015-May-21 15:33N 51°19' E 003°13'0 0.4
2015-May-21 14:33N 51°19' E 003°14'0 0.0
2015-May-21 13:33N 51°19' E 003°14'0 0.0
2015-May-21 12:33N 51°19' E 003°14'0 0.0
2015-May-21 11:33N 51°19' E 003°14'0 0.0
2015-May-21 10:33N 51°19' E 003°14'0 0.0
2015-May-21 09:33N 51°19' E 003°14'0 0.0
2015-May-21 08:33N 51°19' E 003°14'0 0.0
2015-May-21 07:33N 51°19' E 003°14'0 0.0
2015-May-21 06:33N 51°19' E 003°14'0 0.0
2015-May-21 05:33N 51°19' E 003°14'0 0.0
2015-May-21 04:33N 51°19' E 003°13'0 0.0
2015-May-21 03:33N 51°19' E 003°14'0 0.0
2015-May-21 02:33N 51°19' E 003°14'0 0.0
2015-May-21 01:33N 51°19' E 003°14'1 0.8
2015-May-21 00:33N 51°20' E 003°13'1 0.9
2015-May-20 23:33N 51°21' E 003°13'1110.5
2015-May-20 22:34N 51°22' E 002°56'9 9.4
2015-May-20 21:33N 51°26' E 002°42'9 9.2
2015-May-20 20:33N 51°35' E 002°42'1813.1
2015-May-20 19:09N 51°53' E 002°41'5012.4
2015-May-20 15:07N 52°35' E 003°27'610.6
2015-May-20 14:33N 52°39' E 003°33'1211.6
2015-May-20 13:33N 52°48' E 003°45'1212.2
2015-May-20 12:33N 52°57' E 003°59'1212.1
2015-May-20 11:33N 53°05' E 004°14'1211.7
2015-May-20 10:33N 53°13' E 004°27'1312.4
2015-May-20 09:31N 53°26' E 004°35'1111.5
2015-May-20 08:33N 53°32' E 004°50'1312.7
2015-May-20 07:33N 53°37' E 005°10'1313.3
2015-May-20 06:33N 53°40' E 005°31'1414.1
2015-May-20 05:33N 53°45' E 005°54'1515.4
2015-May-20 04:33N 53°49' E 006°19'3115.5
2015-May-20 02:33N 53°57' E 007°10'1514.7
2015-May-20 01:33N 53°59' E 007°35'1212.2
2015-May-20 00:33N 53°52' E 007°52'1514.8
2015-May-19 23:34N 53°45' E 008°13'1413.9
2015-May-19 22:33N 53°36' E 008°31'2 1.9
2015-May-19 21:33N 53°34' E 008°33'0 0.4
2015-May-19 20:31N 53°35' E 008°33'0 0.0
2015-May-19 19:31N 53°35' E 008°33'0 0.0
2015-May-19 18:31N 53°35' E 008°33'0 0.0
2015-May-19 17:31N 53°35' E 008°33'0 0.0
2015-May-19 16:31N 53°35' E 008°33'0 0.0
2015-May-19 15:31N 53°35' E 008°33'0 0.0
2015-May-19 14:31N 53°35' E 008°33'0 0.0
2015-May-19 13:31N 53°35' E 008°33'0 0.0
2015-May-19 12:31N 53°35' E 008°33'0 0.0
2015-May-19 11:31N 53°35' E 008°33'0 0.0
2015-May-19 10:31N 53°35' E 008°33'0 0.0
2015-May-19 09:31N 53°35' E 008°33'0 0.0
2015-May-19 08:31N 53°35' E 008°33'0 0.0
2015-May-19 07:31N 53°35' E 008°33'0 0.0
2015-May-19 06:31N 53°35' E 008°33'0 0.0
2015-May-19 05:31N 53°35' E 008°33'0 0.0
2015-May-19 04:31N 53°35' E 008°33'0 0.0
2015-May-19 03:31N 53°35' E 008°33'0 0.0
2015-May-19 02:31N 53°35' E 008°33'1 0.6
2015-May-19 01:33N 53°34' E 008°33'10 9.7
2015-May-19 00:34N 53°41' E 008°21'1616.3
2015-May-18 23:33N 53°51' E 007°60'1211.7
2015-May-18 22:34N 53°55' E 007°41'1110.7
2015-May-18 21:34N 54°04' E 007°32'1615.8
2015-May-18 20:33N 54°18' E 007°19'1919.4
2015-May-18 19:34N 54°35' E 007°04'1918.4
2015-May-18 18:32N 54°54' E 006°59'1818.0
2015-May-18 17:33N 55°11' E 006°57'1817.9
2015-May-18 16:33N 55°29' E 007°04'1817.7
2015-May-18 15:33N 55°46' E 007°14'15216.7
2015-May-18 06:30N 57°44' E 010°07'1617.0
2015-May-18 05:33N 57°48' E 010°36'1616.3
2015-May-18 04:34N 57°40' E 011°03'1717.4
2015-May-18 03:33N 57°28' E 011°26'1817.6
2015-May-18 02:33N 57°12' E 011°39'1717.4
2015-May-18 01:33N 56°55' E 011°49'1717.4
2015-May-18 00:33N 56°38' E 011°57'1817.5
2015-May-17 23:33N 56°21' E 012°04'1717.1
2015-May-17 22:34N 56°10' E 012°27'1313.2
2015-May-17 21:33N 55°59' E 012°42'1615.7
2015-May-17 20:33N 55°45' E 012°53'9 8.6
2015-May-17 19:33N 55°37' E 012°60'0 0.0
2015-May-17 18:32N 55°37' E 012°60'0 0.0
2015-May-17 17:29N 55°37' E 012°60'0 0.0
2015-May-17 16:32N 55°37' E 012°60'0 0.0
2015-May-17 15:32N 55°37' E 012°60'0 0.0
2015-May-17 14:32N 55°37' E 012°60'0 0.0
2015-May-17 13:32N 55°37' E 012°60'0 0.0
2015-May-17 12:29N 55°37' E 012°60'0 0.0
2015-May-17 11:32N 55°37' E 012°60'0 0.0
2015-May-17 10:32N 55°37' E 012°60'0 0.0
2015-May-17 09:26N 55°37' E 012°60'0 0.0
2015-May-17 08:29N 55°37' E 012°60'0 0.0
2015-May-17 07:32N 55°37' E 012°60'0 0.0
2015-May-17 06:32N 55°37' E 012°60'0 0.0
2015-May-17 05:32N 55°37' E 012°60'0 0.0
2015-May-17 04:29N 55°37' E 012°60'0 0.1
2015-May-17 03:34N 55°37' E 012°60'7 7.5
2015-May-17 02:33N 55°44' E 012°53'1414.3
2015-May-17 01:34N 55°57' E 012°42'1312.9
2015-May-17 00:34N 56°07' E 012°29'1414.3
2015-May-16 23:34N 56°16' E 012°08'1817.7
2015-May-16 22:33N 56°33' E 011°57'1817.5
2015-May-16 21:33N 56°49' E 011°49'1111.5
2015-May-16 20:33N 57°00' E 011°42'1211.7
2015-May-16 19:33N 57°11' E 011°35'1413.8
2015-May-16 18:33N 57°24' E 011°26'1313.4
2015-May-16 17:33N 57°34' E 011°10'1211.9
2015-May-16 16:33N 57°43' E 010°54'1211.6
2015-May-16 15:33N 57°47' E 010°34'21313.1
2015-May-15 23:14N 55°18' E 005°58'5615.2
2015-May-15 19:32N 54°31' E 005°04'1313.4
2015-May-15 18:32N 54°20' E 004°51'1211.6
2015-May-15 17:33N 54°09' E 004°43'1313.2
2015-May-15 16:33N 53°57' E 004°36'1211.9
2015-May-15 15:31N 53°47' E 004°23'1211.8
2015-May-15 14:33N 53°40' E 004°08'1211.8
2015-May-15 13:32N 53°33' E 003°52'1111.6
2015-May-15 12:34N 53°23' E 003°41'1212.0
2015-May-15 11:33N 53°13' E 003°33'1211.8
2015-May-15 10:32N 53°02' E 003°25'1111.2
2015-May-15 09:33N 52°52' E 003°17'1110.7
2015-May-15 08:31N 52°42' E 003°08'1010.3
2015-May-15 07:31N 52°33' E 003°01'11 9.9
2015-May-15 06:26N 52°23' E 002°54'4442.1
2015-May-15 05:23N 51°39' E 002°44'2120.9
2015-May-15 04:24N 51°60' E 002°43'3029.4
2015-May-15 03:22N 51°30' E 002°41'4 4.2
2015-May-15 02:30N 51°33' E 002°42'1212.2
2015-May-15 01:34N 51°22' E 002°47'1514.9
2015-May-15 00:34N 51°22' E 003°11'3 2.7
2015-May-14 23:33N 51°20' E 003°13'2 1.8
2015-May-14 22:32N 51°18' E 003°14'0 0.0
2015-May-14 21:32N 51°18' E 003°14'0 0.0
2015-May-14 20:32N 51°18' E 003°14'0 0.0
2015-May-14 19:32N 51°18' E 003°14'0 0.0
2015-May-14 18:32N 51°18' E 003°14'0 0.0
2015-May-14 17:32N 51°18' E 003°14'0 0.0
2015-May-14 16:32N 51°18' E 003°14'0 0.0
2015-May-14 15:32N 51°18' E 003°14'0 0.0
2015-May-14 14:32N 51°18' E 003°14'0 0.0
2015-May-14 13:32N 51°18' E 003°14'0 0.0
2015-May-14 12:29N 51°18' E 003°14'0 0.0
2015-May-14 11:32N 51°18' E 003°14'0 0.0
2015-May-14 10:32N 51°18' E 003°14'0 0.5
2015-May-14 09:33N 51°18' E 003°14'2 1.6
2015-May-14 08:33N 51°20' E 003°13'8 7.9
2015-May-14 07:33N 51°24' E 003°02'1413.6
2015-May-14 06:33N 51°22' E 002°41'1212.5
2015-May-14 05:33N 51°19' E 002°21'1716.8
2015-May-14 04:33N 51°11' E 001°58'1616.1
2015-May-14 03:33N 51°01' E 001°38'1616.1
2015-May-14 02:33N 50°47' E 001°24'1616.3
2015-May-14 01:33N 50°34' E 001°08'1716.8
2015-May-14 00:33N 50°28' E 000°44'1717.0
2015-May-13 23:33N 50°22' E 000°19'3316.6
2015-May-13 21:33N 50°14' W 000°32'1616.5
2015-May-13 20:33N 50°10' W 000°57'1717.0
2015-May-13 19:33N 50°06' W 001°22'1818.1
2015-May-13 18:33N 50°00' W 001°49'1919.1
2015-May-13 17:33N 49°55' W 002°18'1919.5
2015-May-13 16:33N 49°50' W 002°47'4019.0
2015-May-13 14:27N 49°45' W 003°48'9413.7
2015-May-13 07:33N 50°26' W 006°01'1817.6
2015-May-13 06:33N 50°36' W 005°39'1918.8
2015-May-13 05:33N 50°48' W 005°15'8717.5
2015-May-13 00:33N 51°22' W 003°07'1414.3
2015-May-12 23:33N 51°30' W 002°48'3 2.9
2015-May-12 22:34N 51°30' W 002°43'0 0.2
2015-May-12 21:33N 51°30' W 002°43'0 0.0
2015-May-12 20:33N 51°30' W 002°43'0 0.0
2015-May-12 19:33N 51°30' W 002°43'0 0.0
2015-May-12 18:33N 51°30' W 002°43'0 0.0
2015-May-12 17:33N 51°30' W 002°43'0 0.0
2015-May-12 16:33N 51°30' W 002°43'0 0.0
2015-May-12 15:33N 51°30' W 002°43'0 0.0
2015-May-12 14:33N 51°30' W 002°43'0 0.0
2015-May-12 13:33N 51°30' W 002°43'0 0.3
2015-May-12 12:34N 51°30' W 002°43'1 0.7
2015-May-12 11:33N 51°31' W 002°43'1010.0
2015-May-12 10:33N 51°27' W 002°59'  

Dump ship's entire track history